Walton Smith — WCZ6292 — position and weather

sailwx.info

Track history (hours):
 
Tides and Currents Weather Stations Pressure Air Temp Water Temp Dewpoint Dewpoint Depression Visibility Wind Speed Wind Dir Waves Ship Positions

Oceanographic research ship Walton Smith (USA)

Detailed information on ship capabilities available from University of Delaware's Ocean Information Center.

Owner: UNIVERSITY OF MIAMI, MIAMI, FL. More information available from US FCC via Universal Licensing System and Coast Guard Vessel Documentation Center.

Last reported at 2018-Apr-18 20:49 UTC. Time now 2018-Apr-19 10:26 UTC.
Position N 19°47' W 069°59'.

; draft 2 m.

MMSI: 367020910.

Date/timePositionNaut miles runAvg speedWind from/ knotsBaromVisibWave heightAir tempDewpointWater temp
2018-Apr-18 20:49N 19°47' W 069°59'2 8.2
2018-Apr-18 20:30N 19°46' W 069°57'4 8.1
2018-Apr-18 20:00N 19°45' W 069°52'4 8.1
2018-Apr-18 19:31N 19°44' W 069°48'4 8.2
2018-Apr-18 19:01N 19°43' W 069°44'5 8.4
2018-Apr-18 18:26N 19°42' W 069°39'4 8.5
2018-Apr-18 18:00N 19°41' W 069°35'4 8.5
2018-Apr-18 17:30N 19°40' W 069°31'4 8.6
2018-Apr-18 17:00N 19°38' W 069°27'117 8.9
2018-Apr-18 03:54N 19°01' W 067°29'4 8.9
2018-Apr-18 03:30N 19°00' W 067°25'5 9.2
2018-Apr-18 02:55N 18°59' W 067°20'4 9.4
2018-Apr-18 02:30N 18°58' W 067°16'5 9.3
2018-Apr-18 02:00N 18°56' W 067°11'23 8.9
2018-Apr-17 23:23N 18°50' W 066°48'3 8.7
2018-Apr-17 23:00N 18°49' W 066°44'4 8.6
2018-Apr-17 22:31N 18°48' W 066°40'4 8.5
2018-Apr-17 22:00N 18°46' W 066°36'4 8.5
2018-Apr-17 21:31N 18°45' W 066°31'4 8.5
2018-Apr-17 21:01N 18°44' W 066°27'4 8.4
2018-Apr-17 20:31N 18°43' W 066°23'4 8.3
2018-Apr-17 20:01N 18°42' W 066°19'4 8.5
2018-Apr-17 19:31N 18°40' W 066°14'4 8.4
2018-Apr-17 19:01N 18°39' W 066°10'4 8.4
2018-Apr-17 18:31N 18°38' W 066°06'4 8.4
2018-Apr-17 18:01N 18°36' W 066°02'4 8.6
2018-Apr-17 17:30N 18°35' W 065°57'4 8.5
2018-Apr-17 17:00N 18°34' W 065°53'4 8.5
2018-Apr-17 16:30N 18°33' W 065°49'4 8.7
2018-Apr-17 16:00N 18°31' W 065°45'4 8.6
2018-Apr-17 15:31N 18°30' W 065°40'39 8.3
2018-Apr-17 10:52N 18°20' W 065°01'2 0.2
2018-Apr-17 01:54N 18°20' W 064°59'13 2.8
2018-Apr-16 21:17N 18°29' W 065°10'0 0.6
2018-Apr-16 21:01N 18°29' W 065°09'0 0.0
2018-Apr-16 20:31N 18°29' W 065°09'1 1.7
2018-Apr-16 20:01N 18°28' W 065°09'4 8.8
2018-Apr-16 19:31N 18°24' W 065°06'5 9.2
2018-Apr-16 19:00N 18°21' W 065°03'4 7.7
2018-Apr-16 18:31N 18°20' W 064°59'0 0.0
2018-Apr-16 18:01N 18°20' W 064°59'0 0.0
2018-Apr-16 17:30N 18°20' W 064°59'0 0.0
2018-Apr-16 17:01N 18°20' W 064°59'2 3.0
2018-Apr-16 16:31N 18°19' W 064°58'1 2.2
2018-Apr-16 16:01N 18°20' W 064°57'0 0.0
2018-Apr-16 15:31N 18°20' W 064°57'0 0.0
2018-Apr-16 15:00N 18°20' W 064°57'0 0.0
2018-Apr-16 14:31N 18°20' W 064°57'0 0.0
2018-Apr-16 14:01N 18°20' W 064°57'0 0.0
2018-Apr-16 13:31N 18°20' W 064°57'2 4.6
2018-Apr-16 13:01N 18°18' W 064°56'4 9.0
2018-Apr-16 12:31N 18°17' W 064°52'5 9.0
2018-Apr-16 12:00N 18°17' W 064°47'4 7.2
2018-Apr-16 11:31N 18°19' W 064°43'0 0.0
2018-Apr-16 11:01N 18°19' W 064°43'0 0.0
2018-Apr-16 10:31N 18°19' W 064°43'0 0.0
2018-Apr-16 10:00N 18°19' W 064°43'0 0.0
2018-Apr-16 09:31N 18°19' W 064°43'0 0.0
2018-Apr-16 09:01N 18°19' W 064°43'0 0.0
2018-Apr-16 08:31N 18°19' W 064°43'0 0.0
2018-Apr-16 08:01N 18°19' W 064°43'0 0.1
2018-Apr-16 07:31N 18°19' W 064°43'0 0.1
2018-Apr-16 07:00N 18°19' W 064°43'0 0.0
2018-Apr-16 06:31N 18°19' W 064°43'0 0.0
2018-Apr-16 06:00N 18°19' W 064°43'0 0.0
2018-Apr-16 05:31N 18°19' W 064°43'0 0.0
2018-Apr-16 05:01N 18°19' W 064°43'0 0.0
2018-Apr-16 04:31N 18°19' W 064°43'0 0.0
2018-Apr-16 04:01N 18°19' W 064°43'0 0.0
2018-Apr-16 03:31N 18°19' W 064°43'0 0.0
2018-Apr-16 03:01N 18°19' W 064°43'0 0.0
2018-Apr-16 02:31N 18°19' W 064°43'0 0.0
2018-Apr-16 02:01N 18°19' W 064°43'0 0.0
2018-Apr-16 01:31N 18°19' W 064°43'0 0.0
2018-Apr-16 01:01N 18°19' W 064°43'0 0.0
2018-Apr-16 00:30N 18°19' W 064°43'0 0.0
2018-Apr-16 00:00N 18°19' W 064°43'0 0.0
2018-Apr-15 23:31N 18°19' W 064°43'0 0.0
2018-Apr-15 23:00N 18°19' W 064°43'0 0.0
2018-Apr-15 22:30N 18°19' W 064°43'0 0.0
2018-Apr-15 22:01N 18°19' W 064°43'0 0.0
2018-Apr-15 21:31N 18°19' W 064°43'0 0.0
2018-Apr-15 21:01N 18°19' W 064°43'0 0.0
2018-Apr-15 20:30N 18°19' W 064°43'0 0.0
2018-Apr-15 20:00N 18°19' W 064°43'0 0.0
2018-Apr-15 19:31N 18°19' W 064°43'0 0.0
2018-Apr-15 19:01N 18°19' W 064°43'0 0.0
2018-Apr-15 18:31N 18°19' W 064°43'0 0.0
2018-Apr-15 18:01N 18°19' W 064°43'0 0.0
2018-Apr-15 17:30N 18°19' W 064°43'0 0.0
2018-Apr-15 17:01N 18°19' W 064°43'15 3.2
2018-Apr-15 12:24N 18°18' W 064°59'  
2018-Apr-11 21:53N 18°20' W 064°57'0 0.0
2018-Apr-11 21:30N 18°20' W 064°57'0 0.0
2018-Apr-11 21:00N 18°20' W 064°57'0 0.0
2018-Apr-11 20:31N 18°20' W 064°57'0 0.0
2018-Apr-11 20:00N 18°20' W 064°57'0 0.0
2018-Apr-11 19:31N 18°20' W 064°57'0 0.0
2018-Apr-11 19:00N 18°20' W 064°57'0 0.0
2018-Apr-11 18:30N 18°20' W 064°57'0 0.0
2018-Apr-11 18:00N 18°20' W 064°57'0 0.0
2018-Apr-11 17:31N 18°20' W 064°57'0 0.0
2018-Apr-11 17:01N 18°20' W 064°57'0 0.0
2018-Apr-11 16:31N 18°20' W 064°57'0 0.0
2018-Apr-11 16:00N 18°20' W 064°57'0 0.0
2018-Apr-11 15:31N 18°20' W 064°57'0 0.0
2018-Apr-11 15:01N 18°20' W 064°57'0 0.0
2018-Apr-11 14:30N 18°20' W 064°57'0 0.0
2018-Apr-11 14:00N 18°20' W 064°57'0 0.0
2018-Apr-11 13:30N 18°20' W 064°57'0 0.0
2018-Apr-11 13:01N 18°20' W 064°57'0 0.0
2018-Apr-11 12:31N 18°20' W 064°57'0 0.0
2018-Apr-11 12:01N 18°20' W 064°57'0 0.0
2018-Apr-11 11:30N 18°20' W 064°57'0 0.0
2018-Apr-11 11:01N 18°20' W 064°57'0 0.0
2018-Apr-11 10:30N 18°20' W 064°57'0 0.0
2018-Apr-11 10:00N 18°20' W 064°57'0 0.0
2018-Apr-11 09:30N 18°20' W 064°57'0 0.0
2018-Apr-11 09:00N 18°20' W 064°57'0 0.0
2018-Apr-11 08:30N 18°20' W 064°57'0 0.0
2018-Apr-11 08:01N 18°20' W 064°57'0 0.0
2018-Apr-11 07:30N 18°20' W 064°57'0 0.0
2018-Apr-11 07:01N 18°20' W 064°57'0 0.0
2018-Apr-11 06:31N 18°20' W 064°57'0 0.0
2018-Apr-11 06:00N 18°20' W 064°57'0 0.0
2018-Apr-11 05:31N 18°20' W 064°57'0 0.0
2018-Apr-11 05:00N 18°20' W 064°57'0 0.0
2018-Apr-11 04:31N 18°20' W 064°57'0 0.0
2018-Apr-11 04:00N 18°20' W 064°57'0 0.0
2018-Apr-11 03:31N 18°20' W 064°57'0 0.0
2018-Apr-11 03:01N 18°20' W 064°57'0 0.0
2018-Apr-10 19:28N 18°20' W 064°57'  
Track history (hours):
 
Tides and Currents Weather Stations Pressure Air Temp Water Temp Dewpoint Dewpoint Depression Visibility Wind Speed Wind Dir Waves Ship Positions

Oceanographic research ship Walton Smith (USA)

Detailed information on ship capabilities available from University of Delaware's Ocean Information Center.

Owner: UNIVERSITY OF MIAMI, MIAMI, FL. More information available from US FCC via Universal Licensing System and Coast Guard Vessel Documentation Center.

Last reported at 2018-Apr-18 20:49 UTC. Time now 2018-Apr-19 10:26 UTC.
Position N 19°47' W 069°59'.

; draft 2 m.

MMSI: 367020910.

Date/timePositionNaut miles runAvg speedWind from/ knotsBaromVisibWave heightAir tempDewpointWater temp
2018-Apr-18 20:49N 19°47' W 069°59'2 8.2
2018-Apr-18 20:30N 19°46' W 069°57'4 8.1
2018-Apr-18 20:00N 19°45' W 069°52'4 8.1
2018-Apr-18 19:31N 19°44' W 069°48'4 8.2
2018-Apr-18 19:01N 19°43' W 069°44'5 8.4
2018-Apr-18 18:26N 19°42' W 069°39'4 8.5
2018-Apr-18 18:00N 19°41' W 069°35'4 8.5
2018-Apr-18 17:30N 19°40' W 069°31'4 8.6
2018-Apr-18 17:00N 19°38' W 069°27'117 8.9
2018-Apr-18 03:54N 19°01' W 067°29'4 8.9
2018-Apr-18 03:30N 19°00' W 067°25'5 9.2
2018-Apr-18 02:55N 18°59' W 067°20'4 9.4
2018-Apr-18 02:30N 18°58' W 067°16'5 9.3
2018-Apr-18 02:00N 18°56' W 067°11'23 8.9
2018-Apr-17 23:23N 18°50' W 066°48'3 8.7
2018-Apr-17 23:00N 18°49' W 066°44'4 8.6
2018-Apr-17 22:31N 18°48' W 066°40'4 8.5
2018-Apr-17 22:00N 18°46' W 066°36'4 8.5
2018-Apr-17 21:31N 18°45' W 066°31'4 8.5
2018-Apr-17 21:01N 18°44' W 066°27'4 8.4
2018-Apr-17 20:31N 18°43' W 066°23'4 8.3
2018-Apr-17 20:01N 18°42' W 066°19'4 8.5
2018-Apr-17 19:31N 18°40' W 066°14'4 8.4
2018-Apr-17 19:01N 18°39' W 066°10'4 8.4
2018-Apr-17 18:31N 18°38' W 066°06'4 8.4
2018-Apr-17 18:01N 18°36' W 066°02'4 8.6
2018-Apr-17 17:30N 18°35' W 065°57'4 8.5
2018-Apr-17 17:00N 18°34' W 065°53'4 8.5
2018-Apr-17 16:30N 18°33' W 065°49'4 8.7
2018-Apr-17 16:00N 18°31' W 065°45'4 8.6
2018-Apr-17 15:31N 18°30' W 065°40'39 8.3
2018-Apr-17 10:52N 18°20' W 065°01'2 0.2
2018-Apr-17 01:54N 18°20' W 064°59'13 2.8
2018-Apr-16 21:17N 18°29' W 065°10'0 0.6
2018-Apr-16 21:01N 18°29' W 065°09'0 0.0
2018-Apr-16 20:31N 18°29' W 065°09'1 1.7
2018-Apr-16 20:01N 18°28' W 065°09'4 8.8
2018-Apr-16 19:31N 18°24' W 065°06'5 9.2
2018-Apr-16 19:00N 18°21' W 065°03'4 7.7
2018-Apr-16 18:31N 18°20' W 064°59'0 0.0
2018-Apr-16 18:01N 18°20' W 064°59'0 0.0
2018-Apr-16 17:30N 18°20' W 064°59'0 0.0
2018-Apr-16 17:01N 18°20' W 064°59'2 3.0
2018-Apr-16 16:31N 18°19' W 064°58'1 2.2
2018-Apr-16 16:01N 18°20' W 064°57'0 0.0
2018-Apr-16 15:31N 18°20' W 064°57'0 0.0
2018-Apr-16 15:00N 18°20' W 064°57'0 0.0
2018-Apr-16 14:31N 18°20' W 064°57'0 0.0
2018-Apr-16 14:01N 18°20' W 064°57'0 0.0
2018-Apr-16 13:31N 18°20' W 064°57'2 4.6
2018-Apr-16 13:01N 18°18' W 064°56'4 9.0
2018-Apr-16 12:31N 18°17' W 064°52'5 9.0
2018-Apr-16 12:00N 18°17' W 064°47'4 7.2
2018-Apr-16 11:31N 18°19' W 064°43'0 0.0
2018-Apr-16 11:01N 18°19' W 064°43'0 0.0
2018-Apr-16 10:31N 18°19' W 064°43'0 0.0
2018-Apr-16 10:00N 18°19' W 064°43'0 0.0
2018-Apr-16 09:31N 18°19' W 064°43'0 0.0
2018-Apr-16 09:01N 18°19' W 064°43'0 0.0
2018-Apr-16 08:31N 18°19' W 064°43'0 0.0
2018-Apr-16 08:01N 18°19' W 064°43'0 0.1
2018-Apr-16 07:31N 18°19' W 064°43'0 0.1
2018-Apr-16 07:00N 18°19' W 064°43'0 0.0
2018-Apr-16 06:31N 18°19' W 064°43'0 0.0
2018-Apr-16 06:00N 18°19' W 064°43'0 0.0
2018-Apr-16 05:31N 18°19' W 064°43'0 0.0
2018-Apr-16 05:01N 18°19' W 064°43'0 0.0
2018-Apr-16 04:31N 18°19' W 064°43'0 0.0
2018-Apr-16 04:01N 18°19' W 064°43'0 0.0
2018-Apr-16 03:31N 18°19' W 064°43'0 0.0
2018-Apr-16 03:01N 18°19' W 064°43'0 0.0
2018-Apr-16 02:31N 18°19' W 064°43'0 0.0
2018-Apr-16 02:01N 18°19' W 064°43'0 0.0
2018-Apr-16 01:31N 18°19' W 064°43'0 0.0
2018-Apr-16 01:01N 18°19' W 064°43'0 0.0
2018-Apr-16 00:30N 18°19' W 064°43'0 0.0
2018-Apr-16 00:00N 18°19' W 064°43'0 0.0
2018-Apr-15 23:31N 18°19' W 064°43'0 0.0
2018-Apr-15 23:00N 18°19' W 064°43'0 0.0
2018-Apr-15 22:30N 18°19' W 064°43'0 0.0
2018-Apr-15 22:01N 18°19' W 064°43'0 0.0
2018-Apr-15 21:31N 18°19' W 064°43'0 0.0
2018-Apr-15 21:01N 18°19' W 064°43'0 0.0
2018-Apr-15 20:30N 18°19' W 064°43'0 0.0
2018-Apr-15 20:00N 18°19' W 064°43'0 0.0
2018-Apr-15 19:31N 18°19' W 064°43'0 0.0
2018-Apr-15 19:01N 18°19' W 064°43'0 0.0
2018-Apr-15 18:31N 18°19' W 064°43'0 0.0
2018-Apr-15 18:01N 18°19' W 064°43'0 0.0
2018-Apr-15 17:30N 18°19' W 064°43'0 0.0
2018-Apr-15 17:01N 18°19' W 064°43'15 3.2
2018-Apr-15 12:24N 18°18' W 064°59'  
2018-Apr-11 21:53N 18°20' W 064°57'0 0.0
2018-Apr-11 21:30N 18°20' W 064°57'0 0.0
2018-Apr-11 21:00N 18°20' W 064°57'0 0.0
2018-Apr-11 20:31N 18°20' W 064°57'0 0.0
2018-Apr-11 20:00N 18°20' W 064°57'0 0.0
2018-Apr-11 19:31N 18°20' W 064°57'0 0.0
2018-Apr-11 19:00N 18°20' W 064°57'0 0.0
2018-Apr-11 18:30N 18°20' W 064°57'0 0.0
2018-Apr-11 18:00N 18°20' W 064°57'0 0.0
2018-Apr-11 17:31N 18°20' W 064°57'0 0.0
2018-Apr-11 17:01N 18°20' W 064°57'0 0.0
2018-Apr-11 16:31N 18°20' W 064°57'0 0.0
2018-Apr-11 16:00N 18°20' W 064°57'0 0.0
2018-Apr-11 15:31N 18°20' W 064°57'0 0.0
2018-Apr-11 15:01N 18°20' W 064°57'0 0.0
2018-Apr-11 14:30N 18°20' W 064°57'0 0.0
2018-Apr-11 14:00N 18°20' W 064°57'0 0.0
2018-Apr-11 13:30N 18°20' W 064°57'0 0.0
2018-Apr-11 13:01N 18°20' W 064°57'0 0.0
2018-Apr-11 12:31N 18°20' W 064°57'0 0.0
2018-Apr-11 12:01N 18°20' W 064°57'0 0.0
2018-Apr-11 11:30N 18°20' W 064°57'0 0.0
2018-Apr-11 11:01N 18°20' W 064°57'0 0.0
2018-Apr-11 10:30N 18°20' W 064°57'0 0.0
2018-Apr-11 10:00N 18°20' W 064°57'0 0.0
2018-Apr-11 09:30N 18°20' W 064°57'0 0.0
2018-Apr-11 09:00N 18°20' W 064°57'0 0.0
2018-Apr-11 08:30N 18°20' W 064°57'0 0.0
2018-Apr-11 08:01N 18°20' W 064°57'0 0.0
2018-Apr-11 07:30N 18°20' W 064°57'0 0.0
2018-Apr-11 07:01N 18°20' W 064°57'0 0.0
2018-Apr-11 06:31N 18°20' W 064°57'0 0.0
2018-Apr-11 06:00N 18°20' W 064°57'0 0.0
2018-Apr-11 05:31N 18°20' W 064°57'0 0.0
2018-Apr-11 05:00N 18°20' W 064°57'0 0.0
2018-Apr-11 04:31N 18°20' W 064°57'0 0.0
2018-Apr-11 04:00N 18°20' W 064°57'0 0.0
2018-Apr-11 03:31N 18°20' W 064°57'0 0.0
2018-Apr-11 03:01N 18°20' W 064°57'0 0.0
2018-Apr-10 19:28N 18°20' W 064°57'  

Dump ship's entire track history